createdAt,value
2018-02-22T00:01:53.665Z,6.93
2018-02-22T00:04:21.121Z,8.60
2018-02-22T00:06:48.566Z,7.40
2018-02-22T00:09:16.766Z,7.80
2018-02-22T00:11:44.236Z,4.87
2018-02-22T00:14:11.700Z,6.90
2018-02-22T00:16:39.174Z,3.90
2018-02-22T00:19:06.624Z,5.90
2018-02-22T00:21:34.084Z,6.97
2018-02-22T00:24:01.550Z,7.33
2018-02-22T00:26:29.045Z,8.47
2018-02-22T00:28:56.504Z,6.23
2018-02-22T00:31:24.105Z,7.37
2018-02-22T00:33:52.293Z,6.57
2018-02-22T00:36:19.744Z,10.27
2018-02-22T00:38:47.950Z,8.07
2018-02-22T00:41:15.466Z,5.83
2018-02-22T00:43:42.914Z,8.23
2018-02-22T00:46:15.009Z,5.80
2018-02-22T00:48:42.465Z,6.50
2018-02-22T00:51:09.898Z,5.40
2018-02-22T00:53:37.337Z,5.93
2018-02-22T00:56:04.792Z,7.03
2018-02-22T00:58:32.237Z,5.93
2018-02-22T01:00:59.690Z,4.87
2018-02-22T01:03:27.136Z,6.50
2018-02-22T01:05:54.570Z,6.57
2018-02-22T01:08:22.010Z,5.10
2018-02-22T01:10:49.452Z,7.70
2018-02-22T01:13:16.908Z,2.80
2018-02-22T01:15:44.519Z,6.87
2018-02-22T01:18:11.968Z,7.10
2018-02-22T01:20:39.423Z,4.47
2018-02-22T01:23:06.903Z,6.33
2018-02-22T01:25:34.756Z,7.13
2018-02-22T01:28:02.197Z,5.67
2018-02-22T01:30:29.649Z,4.90
2018-02-22T01:32:57.089Z,5.47
2018-02-22T01:35:24.532Z,4.57
2018-02-22T01:37:52.757Z,5.83
2018-02-22T01:40:20.201Z,4.90
2018-02-22T01:42:47.642Z,4.20
2018-02-22T01:45:15.109Z,6.00
2018-02-22T01:47:42.552Z,5.60
2018-02-22T01:50:09.989Z,4.73
2018-02-22T01:52:37.937Z,3.30
2018-02-22T01:55:05.381Z,5.60
2018-02-22T01:57:32.833Z,4.00
2018-02-22T02:00:00.292Z,3.90
2018-02-22T02:02:27.745Z,6.93
2018-02-22T02:04:55.954Z,5.00
2018-02-22T02:07:23.400Z,4.00
2018-02-22T02:09:50.853Z,3.57
2018-02-22T02:12:18.285Z,5.23
2018-02-22T02:14:45.732Z,3.80
2018-02-22T02:17:13.175Z,5.23
2018-02-22T02:19:40.637Z,4.93
2018-02-22T02:22:08.096Z,4.70
2018-02-22T02:24:35.542Z,6.03
2018-02-22T02:27:02.992Z,5.87
2018-02-22T02:29:30.433Z,4.57
2018-02-22T02:31:57.881Z,6.93
2018-02-22T02:34:26.101Z,5.07
2018-02-22T02:36:53.551Z,3.40
2018-02-22T02:39:21.012Z,4.47
2018-02-22T02:41:48.716Z,7.30
2018-02-22T02:44:16.176Z,5.90
2018-02-22T02:46:43.618Z,5.70
2018-02-22T02:49:11.060Z,5.80
2018-02-22T02:51:38.530Z,3.60
2018-02-22T02:54:05.972Z,4.13
2018-02-22T02:56:33.477Z,3.77
2018-02-22T02:59:00.909Z,5.57
2018-02-22T03:01:28.348Z,4.40
2018-02-22T03:03:56.581Z,3.17
2018-02-22T03:06:24.030Z,3.70
2018-02-22T03:08:51.483Z,3.83
2018-02-22T03:11:18.940Z,2.80
2018-02-22T03:13:46.420Z,3.20
2018-02-22T03:16:15.537Z,3.57
2018-02-22T03:18:42.997Z,3.27
2018-02-22T03:21:10.465Z,3.20
2018-02-22T03:23:37.934Z,3.57
2018-02-22T03:26:05.385Z,5.13
2018-02-22T03:28:32.841Z,5.23
2018-02-22T03:31:00.297Z,2.80
2018-02-22T03:33:27.767Z,3.03
2018-02-22T03:35:55.241Z,6.23
2018-02-22T03:38:22.687Z,3.30
2018-02-22T03:40:50.150Z,4.23
2018-02-22T03:43:17.623Z,4.62
2018-02-22T03:45:45.074Z,4.13
2018-02-22T03:48:12.536Z,4.67
2018-02-22T03:50:39.996Z,6.53
2018-02-22T03:53:07.707Z,2.70
2018-02-22T03:55:35.149Z,3.67
2018-02-22T03:58:02.600Z,5.53
2018-02-22T04:00:30.041Z,5.27
2018-02-22T04:02:57.500Z,4.33
2018-02-22T04:05:24.950Z,5.30
2018-02-22T04:07:52.404Z,4.87
2018-02-22T04:10:19.863Z,4.20
2018-02-22T04:12:47.340Z,4.43
2018-02-22T04:15:14.808Z,4.10
2018-02-22T04:17:42.248Z,4.30
2018-02-22T04:20:09.697Z,1.67
2018-02-22T04:22:37.152Z,3.50
2018-02-22T04:25:04.617Z,3.53
2018-02-22T04:27:32.067Z,1.50
2018-02-22T04:29:59.517Z,5.80
2018-02-22T04:32:27.272Z,4.03
2018-02-22T04:34:54.729Z,4.03
2018-02-22T04:37:22.182Z,4.27
2018-02-22T04:39:49.645Z,4.37
2018-02-22T04:42:17.107Z,3.57
2018-02-22T04:44:44.564Z,3.13
2018-02-22T04:47:12.009Z,3.13
2018-02-22T04:49:39.966Z,4.00
2018-02-22T04:52:07.434Z,1.90
2018-02-22T04:54:34.879Z,4.27
2018-02-22T04:57:02.332Z,4.00
2018-02-22T04:59:29.777Z,4.70
2018-02-22T05:01:57.256Z,3.27
2018-02-22T05:04:24.711Z,4.27
2018-02-22T05:06:52.177Z,4.97
2018-02-22T05:09:19.656Z,6.60
2018-02-22T05:11:47.131Z,4.63
2018-02-22T05:14:14.648Z,3.10
2018-02-22T05:16:42.045Z,2.70
2018-02-22T05:19:09.489Z,5.27
2018-02-22T05:21:36.958Z,4.00
2018-02-22T05:24:04.397Z,3.53
2018-02-22T05:26:32.341Z,4.27
2018-02-22T05:29:00.050Z,3.07
2018-02-22T05:31:27.523Z,5.70
2018-02-22T05:33:55.015Z,3.47
2018-02-22T05:36:22.450Z,3.30
2018-02-22T05:38:50.313Z,4.07
2018-02-22T05:41:17.775Z,3.13
2018-02-22T05:43:45.221Z,3.10
2018-02-22T05:48:46.890Z,5.13
2018-02-22T05:51:14.345Z,2.90
2018-02-22T05:53:41.793Z,2.60
2018-02-22T05:56:09.248Z,3.40
2018-02-22T05:58:37.071Z,3.73
2018-02-22T06:01:04.515Z,4.23
2018-02-22T06:03:31.996Z,3.13
2018-02-22T06:05:59.465Z,2.70
2018-02-22T06:08:27.425Z,2.70
2018-02-22T06:10:54.881Z,3.27
2018-02-22T06:13:22.331Z,3.67
2018-02-22T06:15:49.794Z,2.03
2018-02-22T06:18:17.255Z,3.77
2018-02-22T06:20:44.718Z,3.10
2018-02-22T06:23:12.173Z,3.87
2018-02-22T06:25:39.633Z,3.67
2018-02-22T06:28:07.111Z,2.47
2018-02-22T06:30:34.562Z,5.40
2018-02-22T06:33:02.030Z,5.27
2018-02-22T06:35:29.486Z,2.63
2018-02-22T06:37:57.702Z,4.40
2018-02-22T06:40:25.161Z,5.57
2018-02-22T06:42:52.613Z,3.00
2018-02-22T06:45:20.076Z,3.20
2018-02-22T06:47:47.513Z,4.73
2018-02-22T06:50:18.565Z,4.27
2018-02-22T06:52:46.016Z,3.60
2018-02-22T06:55:13.449Z,3.20
2018-02-22T06:57:40.914Z,3.50
2018-02-22T07:00:08.365Z,3.53
2018-02-22T07:02:36.599Z,2.67
2018-02-22T07:05:04.060Z,4.80
2018-02-22T07:07:31.511Z,3.27
2018-02-22T07:09:58.981Z,3.93
2018-02-22T07:12:26.449Z,3.80
2018-02-22T07:14:53.901Z,3.10
2018-02-22T07:17:21.353Z,3.57
2018-02-22T07:19:48.796Z,6.67
2018-02-22T07:22:16.245Z,3.17
2018-02-22T07:24:43.688Z,3.27
2018-02-22T07:27:11.133Z,5.27
2018-02-22T07:29:38.591Z,3.53
2018-02-22T07:32:07.539Z,3.97
2018-02-22T07:34:34.985Z,3.60
2018-02-22T07:37:02.433Z,3.30
2018-02-22T07:39:29.898Z,3.60
2018-02-22T07:41:57.364Z,6.20
2018-02-22T07:44:25.566Z,5.17
2018-02-22T07:46:53.017Z,4.50
2018-02-22T07:49:20.452Z,6.27
2018-02-22T07:51:47.919Z,5.87
2018-02-22T07:54:16.141Z,5.23
2018-02-22T07:56:43.576Z,4.60
2018-02-22T07:59:11.305Z,3.67
2018-02-22T08:01:38.771Z,4.07
2018-02-22T08:04:06.193Z,4.37
2018-02-22T08:06:33.645Z,5.20
2018-02-22T08:09:01.089Z,3.47
2018-02-22T08:11:28.593Z,6.73
2018-02-22T08:13:56.033Z,4.60
2018-02-22T08:16:23.471Z,3.50
2018-02-22T08:18:51.664Z,4.33
2018-02-22T08:21:19.878Z,4.67
2018-02-22T08:23:47.316Z,4.80
2018-02-22T08:26:14.764Z,5.87
2018-02-22T08:28:42.196Z,5.60
2018-02-22T08:31:10.210Z,6.20
2018-02-22T08:33:37.660Z,6.73
2018-02-22T08:36:05.080Z,6.27
2018-02-22T08:38:32.534Z,5.73
2018-02-22T08:40:59.968Z,6.63
2018-02-22T08:43:27.454Z,6.33
2018-02-22T08:45:54.897Z,5.27
2018-02-22T08:48:22.346Z,5.30
2018-02-22T08:50:49.833Z,5.57
2018-02-22T08:53:17.288Z,4.60
2018-02-22T08:55:44.751Z,4.30
2018-02-22T08:58:12.194Z,4.37
2018-02-22T09:00:39.636Z,5.20
2018-02-22T09:03:07.093Z,4.20
2018-02-22T09:05:34.533Z,5.10
2018-02-22T09:08:02.453Z,5.33
2018-02-22T09:10:29.934Z,4.80
2018-02-22T09:12:57.370Z,3.13
2018-02-22T09:15:24.837Z,6.90
2018-02-22T09:17:52.282Z,3.33
2018-02-22T09:20:19.751Z,4.73
2018-02-22T09:22:47.359Z,4.67
2018-02-22T09:25:14.802Z,4.90
2018-02-22T09:27:42.670Z,5.20
2018-02-22T09:30:10.110Z,4.80
2018-02-22T09:32:37.994Z,5.77
2018-02-22T09:35:05.437Z,5.20
2018-02-22T09:37:32.880Z,4.03
2018-02-22T09:40:00.335Z,4.93
2018-02-22T09:42:27.872Z,4.60
2018-02-22T09:44:55.340Z,3.97
2018-02-22T09:47:22.771Z,4.80
2018-02-22T09:49:50.215Z,5.30
2018-02-22T09:52:17.654Z,4.40
2018-02-22T09:54:45.087Z,5.07
2018-02-22T09:57:13.306Z,5.83
2018-02-22T09:59:40.743Z,4.67
2018-02-22T10:02:08.944Z,4.70
2018-02-22T10:04:36.402Z,4.10
2018-02-22T10:07:03.846Z,4.20
2018-02-22T10:09:31.962Z,4.13
2018-02-22T10:11:59.409Z,3.40
2018-02-22T10:14:26.851Z,4.30
2018-02-22T10:16:54.307Z,3.67
2018-02-22T10:19:21.749Z,3.63
2018-02-22T10:21:49.215Z,3.43
2018-02-22T10:24:16.666Z,4.17
2018-02-22T10:26:44.109Z,3.43
2018-02-22T10:29:11.582Z,4.40
2018-02-22T10:31:39.044Z,4.73
2018-02-22T10:34:06.504Z,4.13
2018-02-22T10:36:33.952Z,4.80
2018-02-22T10:39:01.393Z,4.70
2018-02-22T10:41:28.991Z,4.33
2018-02-22T10:43:57.017Z,4.70
2018-02-22T10:46:24.486Z,4.00
2018-02-22T10:48:51.921Z,4.80
2018-02-22T10:51:19.403Z,4.60
2018-02-22T10:53:46.916Z,5.00
2018-02-22T10:56:14.376Z,4.23
2018-02-22T10:58:41.832Z,5.97
2018-02-22T11:01:18.471Z,4.87
2018-02-22T11:03:45.922Z,4.63
2018-02-22T11:06:13.362Z,5.00
2018-02-22T11:08:40.789Z,4.27
2018-02-22T11:11:08.240Z,4.30
2018-02-22T11:13:35.696Z,4.87
2018-02-22T11:16:03.152Z,5.60
2018-02-22T11:18:30.606Z,5.87
2018-02-22T11:20:58.051Z,5.23
2018-02-22T11:23:25.501Z,6.07
2018-02-22T11:25:52.938Z,5.13
2018-02-22T11:28:21.149Z,4.30
2018-02-22T11:30:48.852Z,5.00
2018-02-22T11:33:16.300Z,4.10
2018-02-22T11:35:43.905Z,5.10
2018-02-22T11:38:12.108Z,4.10
2018-02-22T11:40:39.678Z,5.83
2018-02-22T11:43:07.118Z,4.57
2018-02-22T11:45:34.749Z,4.83
2018-02-22T11:48:02.193Z,5.27
2018-02-22T11:50:29.634Z,4.20
2018-02-22T11:52:57.078Z,4.90
2018-02-22T11:55:24.532Z,5.00
2018-02-22T11:57:52.739Z,6.10
2018-02-22T12:00:20.197Z,6.10
2018-02-22T12:02:47.620Z,4.50
2018-02-22T12:05:15.849Z,5.70
2018-02-22T12:07:43.277Z,4.50
2018-02-22T12:10:10.711Z,4.20
2018-02-22T12:12:38.166Z,5.60
2018-02-22T12:15:05.598Z,4.60
2018-02-22T12:17:33.049Z,5.30
2018-02-22T12:20:00.489Z,5.57
2018-02-22T12:22:27.932Z,4.80
2018-02-22T12:24:55.386Z,4.10
2018-02-22T12:27:22.819Z,4.27
2018-02-22T12:29:50.269Z,4.47
2018-02-22T12:32:17.717Z,3.53
2018-02-22T12:34:45.401Z,4.23
2018-02-22T12:37:12.847Z,3.27
2018-02-22T12:39:40.301Z,4.20
2018-02-22T12:42:07.751Z,4.83
2018-02-22T12:44:35.192Z,4.45
2018-02-22T12:47:02.635Z,4.72
2018-02-22T12:49:30.275Z,3.60
2018-02-22T12:51:57.709Z,4.20
2018-02-22T12:54:25.162Z,3.27
2018-02-22T12:56:52.602Z,3.50
2018-02-22T12:59:20.041Z,5.17
2018-02-22T13:01:47.495Z,4.20
2018-02-22T13:04:14.939Z,3.60
2018-02-22T13:06:42.401Z,3.50
2018-02-22T13:09:09.849Z,3.27
2018-02-22T13:11:37.636Z,3.27
2018-02-22T13:14:05.089Z,3.70
2018-02-22T13:16:33.293Z,2.30
2018-02-22T13:19:01.138Z,3.87
2018-02-22T13:21:28.642Z,3.40
2018-02-22T13:23:56.082Z,3.57
2018-02-22T13:26:23.598Z,3.53
2018-02-22T13:28:54.834Z,4.30
2018-02-22T13:31:23.048Z,3.47
2018-02-22T13:34:02.156Z,3.17
2018-02-22T13:36:29.602Z,3.13
2018-02-22T13:39:09.712Z,5.07
2018-02-22T13:41:37.211Z,3.80
2018-02-22T13:44:17.221Z,4.30
2018-02-22T13:46:44.671Z,3.63
2018-02-22T13:49:23.831Z,3.83
2018-02-22T13:51:51.303Z,3.83
2018-02-22T13:54:19.050Z,3.97
2018-02-22T13:56:58.205Z,3.37
2018-02-22T13:59:25.662Z,3.47
2018-02-22T14:02:04.823Z,3.37
2018-02-22T14:04:32.281Z,3.10
2018-02-22T14:07:00.639Z,2.33
2018-02-22T14:09:28.089Z,3.60
2018-02-22T14:11:55.571Z,2.70
2018-02-22T14:14:23.168Z,3.60
2018-02-22T14:16:50.577Z,2.93
2018-02-22T14:19:18.019Z,3.27
2018-02-22T14:21:45.479Z,3.40
2018-02-22T14:24:12.914Z,3.10
2018-02-22T14:26:40.378Z,4.13
2018-02-22T14:29:07.830Z,3.60
2018-02-22T14:31:36.039Z,3.70
2018-02-22T14:34:03.497Z,3.67
2018-02-22T14:36:30.943Z,2.63
2018-02-22T14:38:58.433Z,3.43
2018-02-22T14:41:25.923Z,2.70
2018-02-22T14:43:58.018Z,3.03
2018-02-22T14:46:25.538Z,3.90
2018-02-22T14:48:52.982Z,3.00
2018-02-22T14:51:20.442Z,3.30
2018-02-22T14:53:47.895Z,2.70
2018-02-22T14:56:15.322Z,3.17
2018-02-22T14:58:43.537Z,2.60
2018-02-22T15:01:11.255Z,3.20
2018-02-22T15:03:41.412Z,2.40
2018-02-22T15:06:08.859Z,3.23
2018-02-22T15:08:37.063Z,3.50
2018-02-22T15:11:04.510Z,2.60
2018-02-22T15:13:31.942Z,2.27
2018-02-22T15:15:59.394Z,3.23
2018-02-22T15:18:26.830Z,3.20
2018-02-22T15:20:54.265Z,2.87
2018-02-22T15:23:21.713Z,2.73
2018-02-22T15:25:49.166Z,2.70
2018-02-22T15:28:17.375Z,3.20
2018-02-22T15:30:44.810Z,2.17
2018-02-22T15:33:12.253Z,2.40
2018-02-22T15:35:39.714Z,3.30
2018-02-22T15:38:07.148Z,2.60
2018-02-22T15:40:35.063Z,3.10
2018-02-22T15:43:02.497Z,3.30
2018-02-22T15:45:29.986Z,3.37
2018-02-22T15:47:57.433Z,2.70
2018-02-22T15:50:24.877Z,2.00
2018-02-22T15:52:53.831Z,3.70
2018-02-22T15:55:21.271Z,3.87
2018-02-22T15:57:48.706Z,2.53
2018-02-22T16:00:16.162Z,2.40
2018-02-22T16:02:44.369Z,2.57
2018-02-22T16:05:11.802Z,2.50
2018-02-22T16:07:39.237Z,2.50
2018-02-22T16:10:06.674Z,3.00
2018-02-22T16:12:34.129Z,3.40
2018-02-22T16:15:01.573Z,2.50
2018-02-22T16:17:29.045Z,2.40
2018-02-22T16:19:56.478Z,2.27
2018-02-22T16:22:23.922Z,2.40
2018-02-22T16:24:51.372Z,2.80
2018-02-22T16:27:18.840Z,3.23
2018-02-22T16:29:46.598Z,2.47
2018-02-22T16:32:14.034Z,3.37
2018-02-22T16:34:41.473Z,2.37
2018-02-22T16:37:08.925Z,2.10
2018-02-22T16:39:36.385Z,3.00
2018-02-22T16:42:03.841Z,2.33
2018-02-22T16:44:31.332Z,2.70
2018-02-22T16:46:58.753Z,2.30
2018-02-22T16:49:26.970Z,2.77
2018-02-22T16:51:54.654Z,1.80
2018-02-22T16:54:22.114Z,3.17
2018-02-22T16:56:49.557Z,2.67
2018-02-22T16:59:17.341Z,3.10
2018-02-22T17:01:44.811Z,2.60
2018-02-22T17:04:12.371Z,2.83
2018-02-22T17:06:40.229Z,3.27
2018-02-22T17:09:07.668Z,3.50
2018-02-22T17:11:35.119Z,1.50
2018-02-22T17:14:02.584Z,1.70
2018-02-22T17:16:30.036Z,1.93
2018-02-22T17:18:58.267Z,2.50
2018-02-22T17:21:25.774Z,2.20
2018-02-22T17:23:53.205Z,2.43
2018-02-22T17:26:27.014Z,2.47
2018-02-22T17:29:00.177Z,2.30
2018-02-22T17:31:33.300Z,2.00
2018-02-22T17:34:00.735Z,1.90
2018-02-22T17:36:33.873Z,3.73
2018-02-22T17:39:06.879Z,3.73
2018-02-22T17:41:37.897Z,1.20
2018-02-22T17:44:05.337Z,2.30
2018-02-22T17:46:33.231Z,1.90
2018-02-22T17:49:00.669Z,2.00
2018-02-22T17:51:28.183Z,2.17
2018-02-22T17:53:56.006Z,1.80
2018-02-22T17:56:23.445Z,3.47
2018-02-22T17:58:50.887Z,3.40
2018-02-22T18:01:19.152Z,1.60
2018-02-22T18:03:50.860Z,2.67
2018-02-22T18:06:18.326Z,1.70
2018-02-22T18:08:45.799Z,4.40
2018-02-22T18:11:13.249Z,2.00
2018-02-22T18:13:40.705Z,2.13
2018-02-22T18:16:08.142Z,3.80
2018-02-22T18:18:35.612Z,3.33
2018-02-22T18:21:03.045Z,2.93
2018-02-22T18:23:30.501Z,1.80
2018-02-22T18:25:57.953Z,2.60
2018-02-22T18:28:25.398Z,2.93
2018-02-22T18:30:52.850Z,2.60
2018-02-22T18:33:20.285Z,3.60
2018-02-22T18:35:47.740Z,2.67
2018-02-22T18:38:15.172Z,2.20
2018-02-22T18:40:48.331Z,2.20
2018-02-22T18:43:21.365Z,2.20
2018-02-22T18:45:48.809Z,3.93
2018-02-22T18:48:16.271Z,3.50
2018-02-22T18:50:43.695Z,2.17
2018-02-22T18:53:11.144Z,1.83
2018-02-22T18:55:38.594Z,2.20
2018-02-22T18:58:06.039Z,3.33
2018-02-22T19:00:33.485Z,1.60
2018-02-22T19:03:00.938Z,2.43
2018-02-22T19:05:28.388Z,3.43
2018-02-22T19:07:55.826Z,3.47
2018-02-22T19:10:23.265Z,1.47
2018-02-22T19:12:51.496Z,3.10
2018-02-22T19:15:18.960Z,2.90
2018-02-22T19:17:46.423Z,1.53
2018-02-22T19:20:14.626Z,2.50
2018-02-22T19:22:42.060Z,3.60
2018-02-22T19:25:09.532Z,1.70
2018-02-22T19:27:37.744Z,2.10
2018-02-22T19:30:05.205Z,2.07
2018-02-22T19:32:32.642Z,1.30
2018-02-22T19:35:00.095Z,1.90
2018-02-22T19:37:28.352Z,1.60
2018-02-22T19:39:55.757Z,2.17
2018-02-22T19:42:23.231Z,3.43
2018-02-22T19:44:50.667Z,1.67
2018-02-22T19:47:18.106Z,1.93
2018-02-22T19:49:46.455Z,1.80
2018-02-22T19:52:13.943Z,3.07
2018-02-22T19:54:41.385Z,1.50
2018-02-22T19:57:09.049Z,3.23
2018-02-22T19:59:36.503Z,2.10
2018-02-22T20:02:03.950Z,3.13
2018-02-22T20:04:31.405Z,2.40
2018-02-22T20:06:58.864Z,1.40
2018-02-22T20:09:26.302Z,2.37
2018-02-22T20:11:53.749Z,1.13
2018-02-22T20:14:21.197Z,3.53
2018-02-22T20:16:48.641Z,3.17
2018-02-22T20:19:16.088Z,2.43
2018-02-22T20:21:43.559Z,2.03
2018-02-22T20:24:11.933Z,3.33
2018-02-22T20:26:40.209Z,2.40
2018-02-22T20:29:07.655Z,2.57
2018-02-22T20:31:35.117Z,2.60
2018-02-22T20:34:02.562Z,2.07
2018-02-22T20:36:30.018Z,2.90
2018-02-22T20:38:57.470Z,2.07
2018-02-22T20:41:24.968Z,2.90
2018-02-22T20:43:52.442Z,1.97
2018-02-22T20:46:19.913Z,3.07
2018-02-22T20:48:47.361Z,4.03
2018-02-22T20:51:15.439Z,2.90
2018-02-22T20:53:46.438Z,3.33
2018-02-22T20:56:13.892Z,1.63
2018-02-22T20:58:41.344Z,1.70
2018-02-22T21:01:09.114Z,3.77
2018-02-22T21:03:37.439Z,1.97
2018-02-22T21:06:04.866Z,2.87
2018-02-22T21:08:33.093Z,3.63
2018-02-22T21:11:00.525Z,3.40
2018-02-22T21:13:28.441Z,3.17
2018-02-22T21:15:55.973Z,2.47
2018-02-22T21:18:23.416Z,1.90
2018-02-22T21:20:50.867Z,2.20
2018-02-22T21:23:18.319Z,2.47
2018-02-22T21:25:45.778Z,2.30
2018-02-22T21:28:13.214Z,2.20
2018-02-22T21:30:41.416Z,1.90
2018-02-22T21:33:09.646Z,2.53
2018-02-22T21:35:37.082Z,2.03
2018-02-22T21:38:04.537Z,2.77
2018-02-22T21:40:31.981Z,2.20
2018-02-22T21:42:59.422Z,2.87
2018-02-22T21:45:26.879Z,3.10
2018-02-22T21:47:54.368Z,2.13
2018-02-22T21:50:21.772Z,1.70
2018-02-22T21:52:49.213Z,1.50
2018-02-22T21:55:16.669Z,2.70
2018-02-22T21:57:44.126Z,2.63
2018-02-22T22:00:11.566Z,2.73
2018-02-22T22:02:39.808Z,2.63
2018-02-22T22:05:07.237Z,3.03
2018-02-22T22:07:34.691Z,2.67
2018-02-22T22:10:02.169Z,2.50
2018-02-22T22:12:29.593Z,1.57
2018-02-22T22:14:57.050Z,1.53
2018-02-22T22:17:24.497Z,1.90
2018-02-22T22:19:52.360Z,2.93
2018-02-22T22:22:19.837Z,1.10
2018-02-22T22:24:47.308Z,3.00
2018-02-22T22:27:14.775Z,1.00
2018-02-22T22:29:42.990Z,2.90
2018-02-22T22:32:10.433Z,2.60
2018-02-22T22:34:37.911Z,1.90
2018-02-22T22:37:05.538Z,2.53
2018-02-22T22:39:33.787Z,3.40
2018-02-22T22:42:01.259Z,3.20
2018-02-22T22:44:28.710Z,3.60
2018-02-22T22:46:56.180Z,2.30
2018-02-22T22:49:23.624Z,1.90
2018-02-22T22:51:51.094Z,2.90
2018-02-22T22:54:18.546Z,2.13
2018-02-22T22:56:46.021Z,3.07
2018-02-22T22:59:13.488Z,4.87
2018-02-22T23:01:40.960Z,3.87
2018-02-22T23:04:08.421Z,2.20
2018-02-22T23:06:35.861Z,1.47
2018-02-22T23:09:03.426Z,2.33
2018-02-22T23:11:30.891Z,2.10
2018-02-22T23:13:58.333Z,2.30
2018-02-22T23:16:25.798Z,2.37
2018-02-22T23:18:53.263Z,2.83
2018-02-22T23:21:20.726Z,3.30
2018-02-22T23:23:48.201Z,2.97
2018-02-22T23:26:15.657Z,1.50
2018-02-22T23:28:43.108Z,3.50
2018-02-22T23:31:13.584Z,1.57
2018-02-22T23:33:41.026Z,2.70
2018-02-22T23:36:08.483Z,3.17
2018-02-22T23:38:35.933Z,1.57
2018-02-22T23:41:09.366Z,2.40
2018-02-22T23:43:37.565Z,1.60
2018-02-22T23:46:05.021Z,1.90
2018-02-22T23:48:32.494Z,1.90
2018-02-22T23:50:59.944Z,3.37
2018-02-22T23:53:27.420Z,3.03
2018-02-22T23:55:54.859Z,3.20
2018-02-22T23:58:22.317Z,3.33
